Time;durP1;ratioP1;P1;durP2;ratioP2;P2;SDS_P1;SDS_P2;PMS_P1;PMS_P2;Temp;Humidity;BMP_temperature;BMP_pressure;BME280_temperature;BME280_humidity;BME280_pressure;Samples;Min_cycle;Max_cycle;Signal;HPM_P1;HPM_P2
2022/01/30 00:00:40;;;;;;;22.77;4.50;;;6.00;80.40;;;;;;4983573;28;20058;-71
2022/01/30 00:03:05;;;;;;;20.95;4.80;;;6.10;80.40;;;;;;4971430;28;20039;-71
2022/01/30 00:05:34;;;;;;;25.92;4.72;;;6.00;81.10;;;;;;4975818;28;20041;-71
2022/01/30 00:07:59;;;;;;;23.35;4.53;;;6.10;81.00;;;;;;4979978;28;20023;-71
2022/01/30 00:10:25;;;;;;;19.27;3.42;;;6.10;80.50;;;;;;4991348;28;20022;-71
2022/01/30 00:12:57;;;;;;;23.83;5.07;;;6.10;80.60;;;;;;4990849;28;20034;-71
2022/01/30 00:15:35;;;;;;;27.15;5.18;;;6.10;80.70;;;;;;4983647;28;20046;-71
2022/01/30 00:18:16;;;;;;;20.48;3.83;;;6.10;80.70;;;;;;4980403;28;20026;-71
2022/01/30 00:20:46;;;;;;;18.67;4.72;;;6.10;80.70;;;;;;4988668;28;20026;-71
2022/01/30 00:23:18;;;;;;;24.98;4.60;;;6.10;80.70;;;;;;4990438;28;20037;-71
2022/01/30 00:25:49;;;;;;;20.73;3.83;;;6.00;81.50;;;;;;4990392;28;20026;-71
2022/01/30 00:28:17;;;;;;;30.40;4.40;;;6.00;81.20;;;;;;4990383;28;20031;-71
2022/01/30 00:30:43;;;;;;;18.38;4.40;;;6.00;81.50;;;;;;4990847;28;20125;-71
2022/01/30 00:33:08;;;;;;;15.43;4.22;;;6.00;81.10;;;;;;4990961;28;20109;-71
2022/01/30 00:35:35;;;;;;;12.95;3.60;;;6.10;80.20;;;;;;4988396;28;20145;-71
2022/01/30 00:38:02;;;;;;;20.15;4.40;;;6.10;79.10;;;;;;4983574;28;20026;-71
2022/01/30 00:40:28;;;;;;;19.70;4.38;;;6.00;80.00;;;;;;4990699;28;20208;-71
2022/01/30 00:42:53;;;;;;;27.20;4.05;;;6.10;79.50;;;;;;4990627;28;20042;-71
2022/01/30 00:45:19;;;;;;;20.48;3.83;;;6.10;79.60;;;;;;4990558;28;20081;-71
2022/01/30 00:47:44;;;;;;;26.85;3.83;;;6.10;78.80;;;;;;4990376;28;20105;-71
2022/01/30 00:50:10;;;;;;;26.67;4.95;;;5.90;79.90;;;;;;4989091;28;20034;-71
2022/01/30 00:52:36;;;;;;;29.48;5.53;;;5.80;79.90;;;;;;4988602;28;20073;-71
2022/01/30 00:55:03;;;;;;;24.80;4.20;;;5.80;79.50;;;;;;4990489;28;20033;-71
2022/01/30 00:57:29;;;;;;;14.77;3.90;;;5.80;79.90;;;;;;4990483;28;20041;-71
2022/01/30 00:59:54;;;;;;;23.35;4.68;;;6.00;78.90;;;;;;4988389;28;20346;-71
2022/01/30 01:02:20;;;;;;;35.08;5.35;;;6.10;78.80;;;;;;4990225;28;20038;-71
2022/01/30 01:04:47;;;;;;;20.85;5.03;;;5.90;80.20;;;;;;4990241;28;20064;-71
2022/01/30 01:07:18;;;;;;;23.95;5.10;;;6.00;80.50;;;;;;4988531;28;20033;-71
2022/01/30 01:09:55;;;;;;;22.88;5.43;;;5.90;81.20;;;;;;4991200;28;20034;-71
2022/01/30 01:12:56;;;;;;;29.15;5.40;;;6.00;80.70;;;;;;4990849;28;20034;-71
2022/01/30 01:20:59;;;;;;;28.67;6.10;;;5.70;84.10;;;;;;4987987;28;20517;-71
2022/01/30 01:23:37;;;;;;;25.02;5.00;;;5.50;86.30;;;;;;4990325;28;20362;-71
2022/01/30 01:26:02;;;;;;;29.05;6.18;;;5.30;87.90;;;;;;4990085;28;20069;-71
2022/01/30 01:28:29;;;;;;;17.48;4.75;;;5.10;88.40;;;;;;4990291;28;20030;-71
2022/01/30 01:30:55;;;;;;;37.35;6.13;;;5.10;88.10;;;;;;4989998;28;20046;-71
2022/01/30 01:33:23;;;;;;;43.28;6.47;;;5.20;87.90;;;;;;4990373;28;20030;-71
2022/01/30 01:35:49;;;;;;;35.53;5.88;;;5.10;88.80;;;;;;4985793;28;20467;-71
2022/01/30 01:38:15;;;;;;;24.63;5.80;;;5.00;89.60;;;;;;4979256;28;20015;-71
2022/01/30 01:40:50;;;;;;;15.13;4.65;;;5.00;90.60;;;;;;4992552;28;20076;-71
2022/01/30 01:43:16;;;;;;;20.38;4.22;;;4.90;90.50;;;;;;4992829;28;20112;-71
2022/01/30 01:45:41;;;;;;;20.33;3.90;;;4.80;90.90;;;;;;4994090;28;20022;-71
2022/01/30 01:48:13;;;;;;;47.60;5.78;;;4.70;91.50;;;;;;4993833;28;20038;-71
2022/01/30 01:50:40;;;;;;;24.85;5.47;;;4.70;91.70;;;;;;4990525;28;20104;-71
2022/01/30 01:53:11;;;;;;;34.38;4.95;;;4.50;92.10;;;;;;4992710;28;20152;-70
2022/01/30 01:55:38;;;;;;;24.60;4.65;;;4.50;91.70;;;;;;4993444;28;20019;-71
2022/01/30 01:58:04;;;;;;;35.40;5.22;;;4.60;90.80;;;;;;4996651;28;20492;-71
2022/01/30 02:00:31;;;;;;;24.77;4.38;;;4.60;90.80;;;;;;4986548;28;20642;-71
2022/01/30 02:02:56;;;;;;;38.35;6.40;;;4.70;90.60;;;;;;4975430;28;20031;-71
2022/01/30 02:05:23;;;;;;;25.98;4.85;;;4.70;90.70;;;;;;4977904;28;20036;-70
2022/01/30 02:10:53;;;;;;;23.48;4.43;;;5.00;87.10;;;;;;4993751;28;20573;-71
2022/01/30 02:14:30;;;;;;;22.08;4.35;;;4.90;88.30;;;;;;4990112;28;20027;-70
2022/01/30 02:27:21;;;;;;;31.55;5.70;;;4.80;88.80;;;;;;4991191;28;20027;-70
2022/01/30 02:29:47;;;;;;;22.65;5.03;;;4.80;88.40;;;;;;4992289;28;20030;-70
2022/01/30 02:32:13;;;;;;;16.90;4.38;;;4.80;88.30;;;;;;4992359;28;20417;-70
2022/01/30 02:34:38;;;;;;;18.35;4.07;;;4.90;86.90;;;;;;4992464;28;20055;-71
2022/01/30 02:37:05;;;;;;;18.85;5.25;;;5.00;86.30;;;;;;4988307;28;20081;-71
2022/01/30 02:39:30;;;;;;;22.55;4.38;;;4.90;86.60;;;;;;4992564;28;20057;-71
2022/01/30 02:41:56;;;;;;;21.67;4.63;;;4.90;86.60;;;;;;4992906;28;20112;-70
2022/01/30 02:44:40;;;;;;;25.20;3.97;;;4.90;86.10;;;;;;4992599;28;20203;-70
2022/01/30 02:47:22;;;;;;;18.13;4.60;;;5.00;86.00;;;;;;4990564;28;20023;-70
2022/01/30 02:50:11;;;;;;;19.58;5.20;;;5.10;84.60;;;;;;4985112;28;20034;-71
2022/01/30 02:52:40;;;;;;;20.35;4.07;;;5.10;84.80;;;;;;4989279;28;20029;-71
2022/01/30 02:55:07;;;;;;;25.77;5.10;;;5.10;85.10;;;;;;4990500;28;20022;-71
2022/01/30 02:57:32;;;;;;;27.60;5.75;;;5.00;86.60;;;;;;4997572;28;20022;-71
2022/01/30 02:59:58;;;;;;;16.80;4.40;;;5.00;86.70;;;;;;4989932;28;20038;-71
2022/01/30 03:02:23;;;;;;;25.75;6.15;;;4.90;86.80;;;;;;4991512;28;20448;-71
2022/01/30 03:04:49;;;;;;;30.52;5.85;;;4.90;86.70;;;;;;4991901;28;20030;-71
2022/01/30 03:07:14;;;;;;;33.90;5.68;;;5.00;86.20;;;;;;4990287;28;20054;-71
2022/01/30 03:09:40;;;;;;;29.70;4.70;;;5.10;85.20;;;;;;4992548;28;20038;-70
2022/01/30 03:12:06;;;;;;;31.70;5.43;;;5.10;85.80;;;;;;4983041;28;20074;-71
2022/01/30 03:14:32;;;;;;;27.38;5.53;;;5.10;85.60;;;;;;4992486;28;20054;-71
2022/01/30 03:16:58;;;;;;;26.70;5.47;;;5.00;86.00;;;;;;4990840;28;20018;-71
2022/01/30 03:19:23;;;;;;;15.20;3.78;;;5.00;86.20;;;;;;4989727;28;20077;-70
2022/01/30 03:21:49;;;;;;;26.77;5.45;;;5.10;84.00;;;;;;4979074;28;20081;-71
2022/01/30 03:24:14;;;;;;;20.13;4.93;;;5.10;82.60;;;;;;4992549;28;20030;-71
2022/01/30 03:26:41;;;;;;;29.90;5.88;;;5.20;81.90;;;;;;4992279;28;20529;-71
2022/01/30 03:29:08;;;;;;;20.63;4.40;;;5.10;82.00;;;;;;4992340;28;20413;-70
2022/01/30 03:31:41;;;;;;;28.77;5.40;;;5.00;82.30;;;;;;4979636;28;20057;-71
2022/01/30 03:34:09;;;;;;;25.45;4.30;;;5.10;81.70;;;;;;4990746;28;20045;-71
2022/01/30 03:36:35;;;;;;;34.55;5.75;;;5.10;81.50;;;;;;4989808;28;20030;-71
2022/01/30 03:39:01;;;;;;;26.35;5.03;;;5.10;80.90;;;;;;4991491;28;20031;-71
2022/01/30 03:41:27;;;;;;;24.23;5.43;;;5.10;82.20;;;;;;4992214;28;20014;-71
2022/01/30 03:43:53;;;;;;;22.67;4.43;;;5.00;82.60;;;;;;4977891;28;20061;-71
2022/01/30 03:46:20;;;;;;;29.05;4.80;;;5.20;82.30;;;;;;4991607;28;20088;-71
2022/01/30 03:48:46;;;;;;;21.80;4.55;;;5.20;82.30;;;;;;4991250;28;20022;-71
2022/01/30 03:51:12;;;;;;;25.45;6.13;;;5.30;82.00;;;;;;4988704;28;20041;-71
2022/01/30 03:53:37;;;;;;;27.55;5.03;;;5.20;83.20;;;;;;4991377;28;20429;-71
2022/01/30 03:56:04;;;;;;;17.33;4.68;;;5.20;84.00;;;;;;4991654;28;20037;-71
2022/01/30 03:58:31;;;;;;;22.88;4.53;;;5.10;85.20;;;;;;5000684;28;20105;-71
2022/01/30 04:00:56;;;;;;;22.55;4.60;;;5.00;84.90;;;;;;4972209;28;20394;-71
2022/01/30 04:03:22;;;;;;;26.80;5.93;;;4.80;86.50;;;;;;4975994;28;20121;-71
2022/01/30 04:05:48;;;;;;;13.82;4.00;;;4.70;88.40;;;;;;4986538;28;20129;-71
2022/01/30 04:08:14;;;;;;;21.13;3.72;;;4.80;85.10;;;;;;4990583;28;20026;-71
2022/01/30 04:10:39;;;;;;;9.60;2.65;;;4.70;86.10;;;;;;4991146;28;20026;-71
2022/01/30 04:13:05;;;;;;;16.63;3.13;;;4.60;84.70;;;;;;4990627;28;20030;-71
2022/01/30 04:15:31;;;;;;;23.52;3.88;;;4.60;83.70;;;;;;4991142;28;20050;-71
2022/01/30 04:17:57;;;;;;;21.73;4.20;;;4.60;82.90;;;;;;4989125;28;20030;-71
2022/01/30 04:20:22;;;;;;;15.88;2.95;;;4.60;81.90;;;;;;4988752;28;20026;-71
2022/01/30 04:22:48;;;;;;;16.23;3.75;;;4.60;81.70;;;;;;4990802;28;20092;-71
2022/01/30 04:25:13;;;;;;;23.63;4.13;;;4.60;81.30;;;;;;4991133;28;20030;-71
2022/01/30 04:27:39;;;;;;;20.73;3.47;;;4.40;82.20;;;;;;4991287;28;20061;-71
2022/01/30 04:30:07;;;;;;;21.55;3.60;;;4.50;81.90;;;;;;4983854;28;20027;-71
2022/01/30 04:32:33;;;;;;;25.70;4.70;;;4.40;82.20;;;;;;4985531;28;20031;-71
2022/01/30 04:35:09;;;;;;;21.00;3.72;;;4.60;81.80;;;;;;4990453;28;20018;-71
2022/01/30 04:37:51;;;;;;;21.58;4.15;;;4.50;82.40;;;;;;4989215;28;20105;-71
2022/01/30 04:40:58;;;;;;;26.75;5.40;;;4.30;83.20;;;;;;4991031;28;20022;-71
2022/01/30 04:55:30;;;;;;;24.13;4.93;;;4.70;81.80;;;;;;4982020;28;20553;-71
2022/01/30 05:05:48;;;;;;;25.08;4.50;;;4.80;80.60;;;;;;4982353;28;20553;-71
2022/01/30 05:08:13;;;;;;;20.83;4.63;;;5.00;80.40;;;;;;4977674;28;20022;-71
2022/01/30 05:10:39;;;;;;;31.42;6.20;;;4.80;81.00;;;;;;4987040;28;20026;-71
2022/01/30 05:13:08;;;;;;;25.42;5.07;;;4.80;81.20;;;;;;4991715;28;20178;-71
2022/01/30 05:15:34;;;;;;;34.22;6.25;;;5.00;80.80;;;;;;4993511;28;20058;-71
2022/01/30 05:18:00;;;;;;;30.40;4.97;;;4.90;80.90;;;;;;4993559;28;20040;-71
2022/01/30 05:20:26;;;;;;;27.52;5.70;;;4.90;80.90;;;;;;4991743;28;20038;-69
2022/01/30 05:22:52;;;;;;;24.77;4.85;;;4.90;81.00;;;;;;4994198;28;20030;-69
2022/01/30 05:25:18;;;;;;;24.25;5.80;;;5.00;80.30;;;;;;4994741;28;20497;-69
2022/01/30 05:27:44;;;;;;;30.60;5.45;;;5.10;79.00;;;;;;4986820;28;20038;-69
2022/01/30 05:30:11;;;;;;;32.55;6.00;;;5.00;79.60;;;;;;4994304;28;20468;-69
2022/01/30 05:32:36;;;;;;;26.75;5.15;;;5.00;79.30;;;;;;4994366;28;20377;-70
2022/01/30 05:35:02;;;;;;;29.45;5.47;;;5.10;78.20;;;;;;4993654;28;20022;-69
2022/01/30 05:37:28;;;;;;;31.58;4.45;;;5.10;77.90;;;;;;4980420;28;20135;-69
2022/01/30 05:39:54;;;;;;;22.70;4.18;;;5.20;76.90;;;;;;4992178;28;20039;-69
2022/01/30 05:42:19;;;;;;;23.42;4.32;;;5.30;76.40;;;;;;4994099;28;20026;-69
2022/01/30 05:47:16;;;;;;;15.88;3.88;;;5.10;76.90;;;;;;4993821;28;20062;-69
2022/01/30 05:49:43;;;;;;;22.47;5.07;;;5.20;76.00;;;;;;4989683;28;20028;-69
2022/01/30 05:52:08;;;;;;;25.27;4.00;;;5.10;76.90;;;;;;4992188;28;20532;-69
2022/01/30 05:54:33;;;;;;;27.08;4.25;;;5.10;76.90;;;;;;4993922;28;20030;-69
2022/01/30 05:57:01;;;;;;;20.73;4.72;;;5.10;76.70;;;;;;4994921;28;20046;-69
2022/01/30 05:59:26;;;;;;;23.67;4.85;;;5.20;75.70;;;;;;4986993;28;20029;-69
2022/01/30 06:01:52;;;;;;;15.90;4.28;;;5.30;75.30;;;;;;4992862;28;20035;-69
2022/01/30 06:04:17;;;;;;;17.27;3.55;;;5.40;75.20;;;;;;4993336;28;20049;-69
2022/01/30 06:06:49;;;;;;;21.58;5.15;;;5.30;75.20;;;;;;4987058;28;20041;-69
2022/01/30 06:11:44;;;;;;;25.23;4.93;;;5.40;75.40;;;;;;4993291;28;20037;-69
2022/01/30 06:14:10;;;;;;;20.80;4.55;;;5.40;75.30;;;;;;4993051;28;20080;-69
2022/01/30 06:16:36;;;;;;;15.40;3.15;;;5.30;76.20;;;;;;4989879;28;20019;-69
2022/01/30 06:19:03;;;;;;;23.75;4.82;;;5.40;75.50;;;;;;4975079;28;20489;-69
2022/01/30 06:21:28;;;;;;;25.38;5.25;;;5.40;76.00;;;;;;4983891;28;20034;-69
2022/01/30 06:23:54;;;;;;;20.88;4.57;;;5.40;76.10;;;;;;4992332;28;20492;-69
2022/01/30 06:26:19;;;;;;;30.70;5.80;;;5.30;76.20;;;;;;4992232;28;20018;-69
2022/01/30 06:28:45;;;;;;;29.20;5.07;;;5.40;76.00;;;;;;4980454;28;20343;-71
2022/01/30 06:31:10;;;;;;;23.00;5.22;;;5.30;77.10;;;;;;4992820;28;20034;-70
2022/01/30 06:33:36;;;;;;;23.45;4.68;;;5.40;77.00;;;;;;4992939;28;20041;-70
2022/01/30 06:36:02;;;;;;;20.50;5.05;;;5.40;77.30;;;;;;4991188;28;20022;-70
2022/01/30 06:38:27;;;;;;;27.20;5.15;;;5.50;76.70;;;;;;4992763;28;20105;-70
2022/01/30 06:40:53;;;;;;;22.80;5.18;;;5.40;77.20;;;;;;5006618;28;20051;-70
2022/01/30 06:43:18;;;;;;;24.70;5.28;;;5.60;76.50;;;;;;4993240;28;20042;-70
2022/01/30 06:45:44;;;;;;;17.02;4.07;;;5.50;76.50;;;;;;4992726;28;20057;-70
2022/01/30 06:48:10;;;;;;;24.42;5.97;;;5.50;76.60;;;;;;4993053;28;20022;-70
2022/01/30 06:50:35;;;;;;;36.60;6.72;;;5.60;76.20;;;;;;4990537;28;20041;-70
2022/01/30 06:53:01;;;;;;;32.10;6.43;;;5.50;76.20;;;;;;4979541;28;20467;-70
2022/01/30 06:55:27;;;;;;;21.35;4.07;;;5.50;76.50;;;;;;4994252;28;20025;-70
2022/01/30 06:57:52;;;;;;;21.10;4.25;;;5.50;76.00;;;;;;4999146;28;20486;-70
2022/01/30 07:00:18;;;;;;;29.15;5.68;;;5.50;76.40;;;;;;4992332;28;20026;-70
2022/01/30 07:02:43;;;;;;;22.45;5.70;;;5.50;77.50;;;;;;4992435;28;20113;-70
2022/01/30 07:05:09;;;;;;;26.20;5.40;;;5.40;77.90;;;;;;4982760;28;20378;-70
2022/01/30 07:07:35;;;;;;;17.90;3.80;;;5.40;77.30;;;;;;4990136;28;20041;-70
2022/01/30 07:10:01;;;;;;;29.05;4.55;;;5.50;76.10;;;;;;4992717;28;20050;-70
2022/01/30 07:12:26;;;;;;;43.03;5.88;;;5.50;76.60;;;;;;4990098;28;20522;-70
2022/01/30 07:14:52;;;;;;;29.63;5.40;;;5.50;76.70;;;;;;4991776;28;20121;-70
2022/01/30 07:17:17;;;;;;;31.15;4.78;;;5.60;76.00;;;;;;4991881;28;20030;-70
2022/01/30 07:19:43;;;;;;;32.88;6.30;;;5.60;75.90;;;;;;4991645;28;20030;-70
2022/01/30 07:22:08;;;;;;;32.58;5.78;;;5.50;76.50;;;;;;4988152;28;20034;-70
2022/01/30 07:24:34;;;;;;;38.58;6.22;;;5.60;76.60;;;;;;4991244;28;20065;-70
2022/01/30 07:27:00;;;;;;;28.92;5.60;;;5.60;75.80;;;;;;4992315;28;20783;-70
2022/01/30 07:29:25;;;;;;;20.83;5.07;;;5.60;76.00;;;;;;4992028;28;20030;-70
2022/01/30 07:31:51;;;;;;;24.80;4.57;;;5.50;75.80;;;;;;4990572;28;20073;-70
2022/01/30 07:34:16;;;;;;;27.50;5.45;;;5.50;76.10;;;;;;4989984;28;20597;-70
2022/01/30 07:36:43;;;;;;;16.13;4.90;;;5.50;75.90;;;;;;4989518;28;20030;-70
2022/01/30 07:39:15;;;;;;;28.88;4.38;;;5.40;75.50;;;;;;4986599;28;20455;-70
2022/01/30 07:41:40;;;;;;;21.70;4.43;;;5.50;74.90;;;;;;4989999;28;20534;-70
2022/01/30 07:44:06;;;;;;;19.20;4.40;;;5.60;73.60;;;;;;4991986;28;20146;-70
2022/01/30 07:46:32;;;;;;;15.57;3.83;;;5.50;73.20;;;;;;4991862;28;20014;-70
2022/01/30 07:48:58;;;;;;;35.15;5.60;;;5.40;73.20;;;;;;4989103;28;20033;-70
2022/01/30 07:51:23;;;;;;;22.92;4.65;;;5.40;74.50;;;;;;4988273;28;20418;-70
2022/01/30 07:53:49;;;;;;;28.48;5.70;;;5.40;74.00;;;;;;4981391;28;20033;-70
2022/01/30 07:56:14;;;;;;;21.25;3.47;;;5.40;73.20;;;;;;5002118;28;20101;-70
2022/01/30 07:58:40;;;;;;;31.20;5.43;;;5.60;72.20;;;;;;4991728;28;20034;-70
2022/01/30 08:01:06;;;;;;;22.20;4.75;;;5.50;73.20;;;;;;4991459;28;20034;-70
2022/01/30 08:03:31;;;;;;;19.50;3.95;;;5.50;73.50;;;;;;4991318;28;20089;-70
2022/01/30 08:05:57;;;;;;;19.98;3.95;;;5.60;72.20;;;;;;4984787;28;20533;-70
2022/01/30 08:08:22;;;;;;;31.73;5.07;;;5.50;72.60;;;;;;4990751;28;20018;-70
2022/01/30 08:10:48;;;;;;;28.55;4.93;;;5.50;73.30;;;;;;4990978;28;20038;-70
2022/01/30 08:13:15;;;;;;;23.58;4.75;;;5.40;73.10;;;;;;4991441;28;20369;-70
2022/01/30 08:15:41;;;;;;;34.17;6.63;;;5.50;72.40;;;;;;4978135;28;20043;-70
2022/01/30 08:18:07;;;;;;;25.73;4.15;;;5.50;72.00;;;;;;4984113;28;20029;-70
2022/01/30 08:20:32;;;;;;;23.05;4.88;;;5.50;71.80;;;;;;4988685;28;20026;-70
2022/01/30 08:23:00;;;;;;;30.35;5.40;;;5.60;71.10;;;;;;4990294;28;20039;-70
2022/01/30 08:25:26;;;;;;;28.15;5.05;;;5.50;71.60;;;;;;4987243;28;20033;-70
2022/01/30 08:27:52;;;;;;;23.80;4.70;;;5.50;70.70;;;;;;4991234;28;20022;-70
2022/01/30 08:30:18;;;;;;;21.75;3.80;;;5.60;70.80;;;;;;4990970;28;20061;-70
2022/01/30 08:32:49;;;;;;;21.98;3.97;;;5.60;69.80;;;;;;4991065;28;20413;-70
2022/01/30 08:35:16;;;;;;;32.10;5.10;;;5.60;70.60;;;;;;4983487;28;20018;-70
2022/01/30 08:37:42;;;;;;;22.05;3.95;;;5.60;70.10;;;;;;4985443;28;20117;-70
2022/01/30 08:40:14;;;;;;;21.90;4.57;;;5.60;70.10;;;;;;4990730;28;20034;-70
2022/01/30 08:42:40;;;;;;;24.85;4.32;;;5.60;70.60;;;;;;4990943;28;20035;-70
2022/01/30 08:45:08;;;;;;;36.33;6.57;;;5.60;71.10;;;;;;4990855;28;20037;-70
2022/01/30 08:47:34;;;;;;;30.80;5.95;;;5.60;71.20;;;;;;4990071;28;20030;-70
2022/01/30 08:50:00;;;;;;;24.45;4.80;;;5.60;71.50;;;;;;4979563;28;20041;-70
2022/01/30 08:52:26;;;;;;;26.23;5.45;;;5.60;71.10;;;;;;4988471;28;20035;-70
2022/01/30 08:54:52;;;;;;;25.20;4.70;;;5.70;71.50;;;;;;5004027;28;20029;-70
2022/01/30 08:57:19;;;;;;;37.13;5.90;;;5.60;71.50;;;;;;4990064;28;20125;-70
2022/01/30 08:59:45;;;;;;;24.15;4.60;;;5.70;70.90;;;;;;4989140;28;20033;-70
2022/01/30 09:02:10;;;;;;;33.00;6.40;;;5.70;70.70;;;;;;4990137;28;20027;-70
2022/01/30 09:04:36;;;;;;;24.40;5.47;;;5.70;70.40;;;;;;4989983;28;20162;-70
2022/01/30 09:07:02;;;;;;;23.48;5.15;;;5.80;70.70;;;;;;4986709;28;20027;-70
2022/01/30 09:09:27;;;;;;;32.40;5.35;;;5.80;71.00;;;;;;4986329;28;20037;-70
2022/01/30 09:11:53;;;;;;;29.40;5.72;;;5.80;70.40;;;;;;4986198;28;20034;-70
2022/01/30 09:14:18;;;;;;;24.25;5.93;;;5.80;70.30;;;;;;4982924;28;20042;-70
2022/01/30 09:16:45;;;;;;;28.17;5.68;;;5.80;70.00;;;;;;4985179;28;20442;-70
2022/01/30 09:19:11;;;;;;;30.73;5.43;;;5.80;70.00;;;;;;4988976;28;20510;-70
2022/01/30 09:21:37;;;;;;;29.08;5.38;;;5.70;70.00;;;;;;4985354;28;20033;-70
2022/01/30 09:24:03;;;;;;;30.92;5.50;;;5.80;69.90;;;;;;4990923;28;20030;-70
2022/01/30 09:26:28;;;;;;;21.42;4.18;;;5.80;69.70;;;;;;4990583;28;20108;-70
2022/01/30 09:28:54;;;;;;;26.63;5.88;;;5.90;68.80;;;;;;4988497;28;20443;-71
2022/01/30 09:31:19;;;;;;;26.98;5.22;;;5.80;69.50;;;;;;4989643;28;20031;-70
2022/01/30 09:33:45;;;;;;;23.38;5.38;;;5.90;68.30;;;;;;4989525;28;20073;-70
2022/01/30 09:36:12;;;;;;;21.00;4.28;;;5.90;69.00;;;;;;4987949;28;20050;-70
2022/01/30 09:38:37;;;;;;;20.92;4.22;;;5.80;68.50;;;;;;4979190;28;20030;-70
2022/01/30 09:41:04;;;;;;;24.73;4.90;;;5.90;69.10;;;;;;4990346;28;20022;-70
2022/01/30 09:43:31;;;;;;;22.42;4.32;;;5.90;68.80;;;;;;4990492;28;20482;-70
2022/01/30 09:45:58;;;;;;;23.60;5.40;;;5.90;68.90;;;;;;4990305;28;20366;-70
2022/01/30 09:48:24;;;;;;;25.40;5.80;;;6.00;68.90;;;;;;4985658;28;20080;-70
2022/01/30 09:50:51;;;;;;;31.13;6.85;;;6.00;69.40;;;;;;4977687;28;20027;-70
2022/01/30 09:53:17;;;;;;;22.35;4.55;;;6.00;69.00;;;;;;5003247;28;20105;-71
2022/01/30 09:55:43;;;;;;;28.60;6.25;;;5.90;68.80;;;;;;4989168;28;20030;-70
2022/01/30 09:58:08;;;;;;;30.48;8.45;;;5.90;68.80;;;;;;4977155;28;20031;-70
2022/01/30 10:00:34;;;;;;;18.02;3.42;;;6.00;68.70;;;;;;4985746;28;20031;-70
2022/01/30 10:03:00;;;;;;;43.22;14.13;;;6.00;68.60;;;;;;4973747;28;20042;-70
2022/01/30 10:05:28;;;;;;;38.05;11.93;;;6.00;68.00;;;;;;4988625;28;20026;-70
2022/01/30 10:07:56;;;;;;;38.90;7.40;;;6.00;68.50;;;;;;4981280;28;20066;-70
2022/01/30 10:10:26;;;;;;;23.65;7.72;;;6.00;67.90;;;;;;4993887;28;20033;-70
2022/01/30 10:13:05;;;;;;;28.75;5.95;;;6.00;67.80;;;;;;4993397;28;20022;-70
2022/01/30 10:15:48;;;;;;;32.42;5.93;;;6.00;68.40;;;;;;4992740;28;20058;-70
2022/01/30 10:18:14;;;;;;;31.98;6.18;;;6.10;68.70;;;;;;4992392;28;20093;-70
2022/01/30 10:20:40;;;;;;;32.00;5.25;;;6.10;68.80;;;;;;4991113;28;20031;-70
2022/01/30 10:23:09;;;;;;;27.73;6.47;;;6.10;69.00;;;;;;4992484;28;20065;-70
2022/01/30 10:25:37;;;;;;;22.92;5.18;;;6.10;69.80;;;;;;4974138;28;20358;-70
2022/01/30 10:28:12;;;;;;;21.33;5.03;;;6.10;69.00;;;;;;4984376;28;20026;-70
2022/01/30 10:30:50;;;;;;;25.48;5.32;;;6.10;68.60;;;;;;4993338;28;20022;-70
2022/01/30 10:33:21;;;;;;;20.75;4.35;;;6.20;67.90;;;;;;4993055;28;20481;-70
2022/01/30 10:35:57;;;;;;;35.60;6.10;;;6.20;68.10;;;;;;4988788;28;20022;-70
2022/01/30 10:38:37;;;;;;;31.25;6.47;;;6.20;68.60;;;;;;4991041;28;20033;-70
2022/01/30 10:41:11;;;;;;;25.52;6.38;;;6.20;68.70;;;;;;4992595;28;20089;-70
2022/01/30 10:43:57;;;;;;;37.25;7.30;;;6.30;69.10;;;;;;4990092;28;20504;-70
2022/01/30 10:46:39;;;;;;;32.38;6.65;;;6.30;69.30;;;;;;4986870;28;20092;-70
2022/01/30 10:49:10;;;;;;;30.10;6.50;;;6.30;68.90;;;;;;4992084;28;20429;-70
2022/01/30 10:51:35;;;;;;;;;;;6.20;68.70;;;;;;4999515;28;20417;-70
2022/01/30 10:54:09;;;;;;;18.58;3.95;;;6.30;67.20;;;;;;4987928;28;19909;-70
2022/01/30 10:56:36;;;;;;;26.75;5.90;;;6.30;66.30;;;;;;4991533;28;20109;-70
2022/01/30 10:59:21;;;;;;;20.15;4.72;;;6.40;65.60;;;;;;4991234;28;20045;-70
2022/01/30 11:01:49;;;;;;;25.80;5.55;;;6.40;66.30;;;;;;4975109;28;20022;-70
2022/01/30 11:04:27;;;;;;;31.73;5.93;;;6.30;66.40;;;;;;4972616;28;20039;-70
2022/01/30 11:06:54;;;;;;;22.60;4.63;;;6.30;66.70;;;;;;4988715;28;20041;-70
2022/01/30 11:09:26;;;;;;;26.52;5.72;;;6.40;66.40;;;;;;4993130;28;20022;-70
2022/01/30 11:12:01;;;;;;;36.15;4.95;;;6.30;67.10;;;;;;4991240;28;20035;-70
2022/01/30 11:14:40;;;;;;;31.17;5.47;;;6.30;67.80;;;;;;4992127;28;20100;-70
2022/01/30 11:17:08;;;;;;;23.92;4.95;;;6.30;68.00;;;;;;4983092;28;20328;-70
2022/01/30 11:19:42;;;;;;;28.55;6.30;;;6.30;66.90;;;;;;4990090;28;20034;-70
2022/01/30 11:22:10;;;;;;;34.92;6.10;;;6.30;66.50;;;;;;4990306;28;20157;-70
2022/01/30 11:24:46;;;;;;;28.40;5.38;;;6.30;65.50;;;;;;4992128;28;20034;-70
2022/01/30 11:27:14;;;;;;;28.98;5.07;;;6.40;65.70;;;;;;4978941;28;20354;-70
2022/01/30 11:29:41;;;;;;;25.33;5.13;;;6.40;65.90;;;;;;4989877;28;20050;-70
2022/01/30 11:32:08;;;;;;;26.23;5.65;;;6.50;66.40;;;;;;4991561;28;20418;-70
2022/01/30 11:34:36;;;;;;;31.63;5.55;;;6.50;65.70;;;;;;4991348;28;20433;-70
2022/01/30 11:37:02;;;;;;;23.88;4.55;;;6.50;66.10;;;;;;4988917;28;20064;-70
2022/01/30 11:39:28;;;;;;;32.83;6.40;;;6.50;66.10;;;;;;4991159;28;20113;-70
2022/01/30 11:42:13;;;;;;;31.02;5.03;;;6.40;66.30;;;;;;4991507;28;20109;-70
2022/01/30 11:44:43;;;;;;;31.92;5.80;;;6.40;66.90;;;;;;5000421;28;20168;-70
2022/01/30 11:47:09;;;;;;;29.25;6.10;;;6.40;66.30;;;;;;4991168;28;20026;-70
2022/01/30 11:49:41;;;;;;;24.48;4.32;;;6.30;66.20;;;;;;4989736;28;20026;-70
2022/01/30 11:52:11;;;;;;;33.38;6.75;;;6.40;66.10;;;;;;4993893;28;20027;-70
2022/01/30 11:54:46;;;;;;;21.02;4.55;;;6.40;65.90;;;;;;4991694;28;20115;-70
2022/01/30 11:57:20;;;;;;;25.10;4.53;;;6.40;65.90;;;;;;4981149;28;20054;-70
2022/01/30 11:59:50;;;;;;;19.00;4.47;;;6.30;66.40;;;;;;4981120;28;20033;-70
2022/01/30 12:02:33;;;;;;;26.98;5.03;;;6.30;66.00;;;;;;4988649;28;20034;-70
2022/01/30 12:05:02;;;;;;;33.95;5.03;;;6.20;66.00;;;;;;4986209;28;20105;-70
2022/01/30 12:07:49;;;;;;;24.25;3.97;;;6.20;66.40;;;;;;4980195;28;20030;-70
2022/01/30 12:10:21;;;;;;;27.05;4.70;;;6.10;65.40;;;;;;4990966;28;20022;-70
2022/01/30 12:12:58;;;;;;;22.85;4.90;;;6.20;64.20;;;;;;4991741;28;20030;-70
2022/01/30 12:15:38;;;;;;;23.63;4.47;;;6.10;65.50;;;;;;4990440;28;20049;-70
2022/01/30 12:18:08;;;;;;;21.70;4.93;;;6.20;65.40;;;;;;4989575;28;20525;-70
2022/01/30 12:21:11;;;;;;;20.67;4.40;;;6.20;65.30;;;;;;4987960;28;20142;-70
2022/01/30 12:23:39;;;;;;;23.48;5.00;;;6.10;65.80;;;;;;4990407;28;20042;-70
2022/01/30 12:26:08;;;;;;;18.10;4.13;;;6.20;65.60;;;;;;4986370;28;20026;-70
2022/01/30 12:28:50;;;;;;;17.35;4.38;;;6.10;64.60;;;;;;4982978;28;20026;-70
2022/01/30 12:31:42;;;;;;;23.45;5.18;;;6.20;64.50;;;;;;4991019;28;20034;-70
2022/01/30 12:34:10;;;;;;;20.35;4.82;;;6.40;65.50;;;;;;4989860;28;20401;-70
2022/01/30 12:36:41;;;;;;;16.65;3.78;;;6.40;64.60;;;;;;4988035;28;20026;-70
2022/01/30 12:39:16;;;;;;;25.17;5.32;;;6.40;64.30;;;;;;4990965;28;20027;-70
2022/01/30 12:41:42;;;;;;;25.67;5.28;;;6.40;64.50;;;;;;4991035;28;20080;-70
2022/01/30 12:44:10;;;;;;;16.95;3.40;;;6.20;64.10;;;;;;4991101;28;20070;-70
2022/01/30 12:46:45;;;;;;;21.85;4.18;;;6.30;64.30;;;;;;4984633;28;20116;-70
2022/01/30 12:49:17;;;;;;;21.15;4.70;;;6.20;64.90;;;;;;4997849;28;20030;-70
2022/01/30 12:51:51;;;;;;;18.35;3.92;;;6.20;65.20;;;;;;4983499;28;20097;-70
2022/01/30 12:54:20;;;;;;;31.52;4.72;;;6.10;65.80;;;;;;4984141;28;20462;-70
2022/01/30 12:56:46;;;;;;;20.23;4.45;;;6.20;66.30;;;;;;4985381;28;20027;-70
2022/01/30 12:59:14;;;;;;;30.08;5.72;;;6.10;66.60;;;;;;4984629;28;20030;-70
2022/01/30 13:01:44;;;;;;;25.77;5.15;;;6.00;67.30;;;;;;4989961;28;20378;-70
2022/01/30 13:04:23;;;;;;;22.33;4.65;;;6.00;67.60;;;;;;4990071;28;20031;-70
2022/01/30 13:06:51;;;;;;;35.45;5.57;;;6.00;68.30;;;;;;4981687;28;20035;-70
2022/01/30 13:09:25;;;;;;;38.03;5.22;;;5.90;69.00;;;;;;4985159;28;20462;-70
2022/01/30 13:11:56;;;;;;;29.42;5.15;;;5.90;69.80;;;;;;4990533;28;20349;-70
2022/01/30 13:14:30;;;;;;;29.63;5.43;;;5.90;70.20;;;;;;4990413;28;20091;-70
2022/01/30 13:16:56;;;;;;;20.00;4.25;;;5.80;66.50;;;;;;4988871;28;20385;-70
2022/01/30 13:19:34;;;;;;;30.50;4.68;;;5.80;66.90;;;;;;4990042;28;20027;-70
2022/01/30 13:22:02;;;;;;;16.38;3.65;;;5.80;67.00;;;;;;4988371;28;20029;-70
2022/01/30 13:24:28;;;;;;;25.48;4.93;;;5.80;67.30;;;;;;4989559;28;20027;-70
2022/01/30 13:27:07;;;;;;;27.58;4.75;;;5.80;68.20;;;;;;4989527;28;20121;-70
2022/01/30 13:29:35;;;;;;;21.63;5.32;;;5.90;66.80;;;;;;4990391;28;20143;-70
2022/01/30 13:32:10;;;;;;;23.83;4.25;;;5.90;67.50;;;;;;4990321;28;20026;-70
2022/01/30 13:34:36;;;;;;;15.02;4.13;;;5.90;67.70;;;;;;4991634;28;20030;-70
2022/01/30 13:37:16;;;;;;;11.57;2.42;;;5.90;67.50;;;;;;4991398;28;20401;-70
2022/01/30 13:39:48;;;;;;;21.67;4.85;;;5.80;66.90;;;;;;4989339;28;20066;-70